Time;durP1;ratioP1;P1;durP2;ratioP2;P2;SDS_P1;SDS_P2;PMS_P1;PMS_P2;Temp;Humidity;BMP_temperature;BMP_pressure;BME280_temperature;BME280_humidity;BME280_pressure;Samples;Min_cycle;Max_cycle;Signal;HPM_P1;HPM_P2
2023/06/13 00:01:49;;;;;;;;;;;;;;;;;;5101149;27;21129;-89
2023/06/13 00:04:36;;;;;;;;;;;;;;;;;;5102864;28;19923;-92
2023/06/13 00:07:23;;;;;;;;;;;;;;;;;;5103744;27;19933;-92
2023/06/13 00:10:10;;;;;;;;;;;;;;;;;;5105866;27;19942;-90
2023/06/13 00:12:57;;;;;;;;;;;;;;;;;;5097266;27;20519;-87
2023/06/13 00:15:44;;;;;;;;;;;;;;;;;;5093342;27;19939;-90
2023/06/13 00:18:30;;;;;;;;;;;;;;;;;;5068958;27;20668;-90
2023/06/13 00:21:17;;;;;;;;;;;;;;;;;;5109765;27;19924;-91
2023/06/13 00:24:03;;;;;;;;;;;;;;;;;;5110888;27;19919;-91
2023/06/13 00:26:50;;;;;;;;;;;;;;;;;;5089741;28;20034;-90
2023/06/13 00:29:36;;;;;;;;;;;;;;;;;;5095727;27;19922;-91
2023/06/13 00:32:23;;;;;;;;;;;;;;;;;;5100162;27;20595;-90
2023/06/13 00:35:09;;;;;;;;;;;;;;;;;;5102116;27;19926;-91
2023/06/13 00:37:56;;;;;;;;;;;;;;;;;;5099035;27;19923;-91
2023/06/13 00:40:43;;;;;;;;;;;;;;;;;;5104948;27;19923;-91
2023/06/13 00:43:29;;;;;;;;;;;;;;;;;;5080842;28;19930;-91
2023/06/13 00:46:17;;;;;;;;;;;;;;;;;;5093813;28;19927;-90
2023/06/13 00:49:04;;;;;;;;;;;;;;;;;;5106044;27;19926;-89
2023/06/13 00:51:50;;;;;;;;;;;;;;;;;;5114658;27;19912;-91
2023/06/13 00:54:37;;;;;;;;;;;;;;;;;;5115601;28;19927;-89
2023/06/13 00:57:24;;;;;;;;;;;;;;;;;;5115770;27;19920;-88
2023/06/13 01:00:11;;;;;;;;;;;;;;;;;;5101274;28;21645;-87
2023/06/13 01:02:58;;;;;;;;;;;;;;;;;;5100021;28;19928;-90
2023/06/13 01:05:45;;;;;;;;;;;;;;;;;;5106305;27;19923;-88
2023/06/13 01:08:31;;;;;;;;;;;;;;;;;;5103705;27;19927;-87
2023/06/13 01:11:18;;;;;;;;;;;;;;;;;;5124134;27;20360;-88
2023/06/13 01:14:04;;;;;;;;;;;;;;;;;;5118554;27;19916;-89
2023/06/13 01:16:54;;;;;;;;;;;;;;;;;;5104676;28;20013;-78
2023/06/13 01:19:41;;;;;;;;;;;;;;;;;;5111849;27;19938;-91
2023/06/13 01:22:27;;;;;;;;;;;;;;;;;;5106875;27;20369;-91
2023/06/13 01:25:14;;;;;;;;;;;;;;;;;;5126705;27;20264;-91
2023/06/13 01:28:01;;;;;;;;;;;;;;;;;;5104100;27;19920;-87
2023/06/13 01:30:47;;;;;;;;;;;;;;;;;;5104953;27;20417;-89
2023/06/13 01:33:34;;;;;;;;;;;;;;;;;;5103441;28;20002;-87
2023/06/13 01:36:20;;;;;;;;;;;;;;;;;;5098690;27;20566;-88
2023/06/13 01:39:12;;;;;;;;;;;;;;;;;;5084634;27;21093;-88
2023/06/13 01:41:59;;;;;;;;;;;;;;;;;;5077461;27;20299;-87
2023/06/13 01:44:45;;;;;;;;;;;;;;;;;;5099157;27;19916;-87
2023/06/13 01:47:32;;;;;;;;;;;;;;;;;;5104539;28;19922;-87
2023/06/13 01:50:18;;;;;;;;;;;;;;;;;;5101223;27;20390;-89
2023/06/13 01:53:05;;;;;;;;;;;;;;;;;;5103734;27;19922;-87
2023/06/13 01:55:51;;;;;;;;;;;;;;;;;;5105419;27;19939;-80
2023/06/13 01:58:38;;;;;;;;;;;;;;;;;;5110798;27;19919;-90
2023/06/13 02:01:25;;;;;;;;;;;;;;;;;;5102467;27;19919;-91
2023/06/13 02:04:11;;;;;;;;;;;;;;;;;;5106769;28;20456;-90
2023/06/13 02:06:58;;;;;;;;;;;;;;;;;;5108329;28;19923;-89
2023/06/13 02:09:44;;;;;;;;;;;;;;;;;;5103921;27;19916;-90
2023/06/13 02:12:31;;;;;;;;;;;;;;;;;;5096863;27;19924;-90
2023/06/13 02:15:17;;;;;;;;;;;;;;;;;;5105954;28;19915;-92
2023/06/13 02:18:04;;;;;;;;;;;;;;;;;;5108731;27;19920;-93
2023/06/13 02:20:50;;;;;;;;;;;;;;;;;;5111513;28;19916;-93
2023/06/13 02:23:36;;;;;;;;;;;;;;;;;;5112827;27;19947;-93
2023/06/13 02:26:23;;;;;;;;;;;;;;;;;;5086678;27;20367;-93
2023/06/13 02:29:10;;;;;;;;;;;;;;;;;;5093936;27;19916;-93
2023/06/13 02:31:56;;;;;;;;;;;;;;;;;;5104834;27;19919;-92
2023/06/13 02:34:43;;;;;;;;;;;;;;;;;;5108090;27;19918;-92
2023/06/13 02:37:29;;;;;;;;;;;;;;;;;;5104758;28;19918;-92
2023/06/13 02:40:16;;;;;;;;;;;;;;;;;;5079488;28;20774;-93
2023/06/13 02:43:02;;;;;;;;;;;;;;;;;;5102936;28;20045;-94
2023/06/13 02:45:50;;;;;;;;;;;;;;;;;;5112384;27;20221;-94
2023/06/13 02:48:37;;;;;;;;;;;;;;;;;;5109075;27;20299;-93
2023/06/13 02:51:23;;;;;;;;;;;;;;;;;;5105689;28;20020;-92
2023/06/13 02:54:11;;;;;;;;;;;;;;;;;;5086800;28;19918;-90
2023/06/13 02:56:57;;;;;;;;;;;;;;;;;;5092655;28;20366;-89
2023/06/13 02:59:44;;;;;;;;;;;;;;;;;;5106337;27;19920;-91
2023/06/13 03:02:31;;;;;;;;;;;;;;;;;;5104194;27;19936;-90
2023/06/13 03:05:18;;;;;;;;;;;;;;;;;;5104063;27;19916;-91
2023/06/13 03:08:04;;;;;;;;;;;;;;;;;;5107617;27;19923;-90
2023/06/13 03:10:51;;;;;;;;;;;;;;;;;;5100928;28;19923;-87
2023/06/13 03:13:38;;;;;;;;;;;;;;;;;;5091878;28;19920;-91
2023/06/13 03:16:27;;;;;;;;;;;;;;;;;;5100628;27;19950;-90
2023/06/13 03:19:14;;;;;;;;;;;;;;;;;;5103695;27;19924;-90
2023/06/13 03:22:00;;;;;;;;;;;;;;;;;;5096575;27;20276;-91
2023/06/13 03:24:47;;;;;;;;;;;;;;;;;;5102332;27;19923;-89
2023/06/13 03:27:33;;;;;;;;;;;;;;;;;;5099095;27;19927;-90
2023/06/13 03:30:20;;;;;;;;;;;;;;;;;;5098763;28;20240;-90
2023/06/13 03:33:06;;;;;;;;;;;;;;;;;;5106826;28;20001;-91
2023/06/13 03:35:53;;;;;;;;;;;;;;;;;;5105642;27;19912;-89
2023/06/13 03:38:40;;;;;;;;;;;;;;;;;;5100173;28;19912;-90
2023/06/13 03:41:26;;;;;;;;;;;;;;;;;;5094953;27;19927;-85
2023/06/13 03:44:13;;;;;;;;;;;;;;;;;;5102794;27;19920;-84
2023/06/13 03:46:59;;;;;;;;;;;;;;;;;;5104275;27;20414;-85
2023/06/13 03:49:46;;;;;;;;;;;;;;;;;;5108435;27;19926;-84
2023/06/13 03:52:32;;;;;;;;;;;;;;;;;;5102787;27;19916;-86
2023/06/13 03:55:19;;;;;;;;;;;;;;;;;;5098620;27;19915;-85
2023/06/13 03:58:05;;;;;;;;;;;;;;;;;;5109412;27;19920;-86
2023/06/13 04:00:54;;;;;;;;;;;;;;;;;;5101948;28;19919;-84
2023/06/13 04:03:41;;;;;;;;;;;;;;;;;;5109783;27;20581;-84
2023/06/13 04:06:28;;;;;;;;;;;;;;;;;;5107862;27;19924;-90
2023/06/13 04:09:15;;;;;;;;;;;;;;;;;;5118865;27;19911;-87
2023/06/13 04:12:02;;;;;;;;;;;;;;;;;;5087202;28;19939;-90
2023/06/13 04:14:48;;;;;;;;;;;;;;;;;;5105601;27;19920;-90
2023/06/13 04:17:36;;;;;;;;;;;;;;;;;;5105828;27;19916;-92
2023/06/13 04:20:23;;;;;;;;;;;;;;;;;;5106715;28;20284;-93
2023/06/13 04:23:10;;;;;;;;;;;;;;;;;;5095727;27;20440;-91
2023/06/13 04:25:57;;;;;;;;;;;;;;;;;;5097237;28;19920;-87
2023/06/13 04:28:43;;;;;;;;;;;;;;;;;;5106408;27;19923;-89
2023/06/13 04:31:35;;;;;;;;;;;;;;;;;;5104465;27;19923;-89
2023/06/13 04:34:23;;;;;;;;;;;;;;;;;;5115670;27;19912;-89
2023/06/13 04:37:10;;;;;;;;;;;;;;;;;;5100699;27;19952;-88
2023/06/13 04:39:56;;;;;;;;;;;;;;;;;;5107448;27;19920;-88
2023/06/13 04:42:47;;;;;;;;;;;;;;;;;;5098964;27;20383;-89
2023/06/13 04:45:35;;;;;;;;;;;;;;;;;;5111881;27;19916;-89
2023/06/13 04:48:25;;;;;;;;;;;;;;;;;;5115830;27;19916;-88
2023/06/13 04:51:11;;;;;;;;;;;;;;;;;;5096889;28;19931;-88
2023/06/13 04:53:58;;;;;;;;;;;;;;;;;;5095171;28;19916;-88
2023/06/13 04:56:45;;;;;;;;;;;;;;;;;;5111956;27;19919;-87
2023/06/13 04:59:32;;;;;;;;;;;;;;;;;;5105088;27;19923;-86
2023/06/13 05:02:18;;;;;;;;;;;;;;;;;;5090431;28;20450;-86
2023/06/13 05:05:05;;;;;;;;;;;;;;;;;;5100672;28;19918;-86
2023/06/13 05:07:55;;;;;;;;;;;;;;;;;;5093428;28;19927;-88
2023/06/13 05:10:41;;;;;;;;;;;;;;;;;;5104191;27;20410;-90
2023/06/13 05:13:28;;;;;;;;;;;;;;;;;;5096288;28;19916;-90
2023/06/13 05:16:17;;;;;;;;;;;;;;;;;;5108284;28;19925;-90
2023/06/13 05:19:05;;;;;;;;;;;;;;;;;;5096292;28;19924;-90
2023/06/13 05:21:51;;;;;;;;;;;;;;;;;;5091553;28;19981;-91
2023/06/13 05:24:38;;;;;;;;;;;;;;;;;;5114752;27;19912;-91
2023/06/13 05:27:24;;;;;;;;;;;;;;;;;;5093716;28;19920;-89
2023/06/13 05:30:11;;;;;;;;;;;;;;;;;;5098617;28;19916;-89
2023/06/13 05:32:57;;;;;;;;;;;;;;;;;;5087117;28;19916;-89
2023/06/13 05:35:44;;;;;;;;;;;;;;;;;;5105220;27;20293;-91
2023/06/13 05:38:31;;;;;;;;;;;;;;;;;;5104705;28;19922;-90
2023/06/13 05:41:18;;;;;;;;;;;;;;;;;;5092445;27;20037;-90
2023/06/13 05:44:04;;;;;;;;;;;;;;;;;;5104140;27;20390;-91
2023/06/13 05:46:51;;;;;;;;;;;;;;;;;;5106711;27;20294;-89
2023/06/13 05:49:37;;;;;;;;;;;;;;;;;;5098794;27;19920;-88
2023/06/13 05:52:23;;;;;;;;;;;;;;;;;;5102289;27;19920;-90
2023/06/13 05:55:10;;;;;;;;;;;;;;;;;;5104588;27;19916;-83
2023/06/13 05:57:57;;;;;;;;;;;;;;;;;;5102293;27;19915;-82
2023/06/13 06:00:45;;;;;;;;;;;;;;;;;;5099800;27;19923;-77
2023/06/13 06:03:33;;;;;;;;;;;;;;;;;;5096138;28;20719;-79
2023/06/13 06:06:20;;;;;;;;;;;;;;;;;;5104291;27;19927;-79
2023/06/13 06:09:06;;;;;;;;;;;;;;;;;;5097044;27;19920;-80
2023/06/13 06:11:53;;;;;;;;;;;;;;;;;;5098627;27;20454;-79
2023/06/13 06:14:39;;;;;;;;;;;;;;;;;;5106015;27;19927;-79
2023/06/13 06:17:25;;;;;;;;;;;;;;;;;;5100925;27;19919;-78
2023/06/13 06:20:12;;;;;;;;;;;;;;;;;;5101684;27;19932;-79
2023/06/13 06:22:58;;;;;;;;;;;;;;;;;;5079005;27;20429;-78
2023/06/13 06:25:45;;;;;;;;;;;;;;;;;;5102394;27;19916;-78
2023/06/13 06:28:31;;;;;;;;;;;;;;;;;;5102929;27;20304;-78
2023/06/13 06:31:18;;;;;;;;;;;;;;;;;;5089794;28;20309;-78
2023/06/13 06:34:05;;;;;;;;;;;;;;;;;;5096793;27;19924;-78
2023/06/13 06:36:51;;;;;;;;;;;;;;;;;;5093594;27;19923;-78
2023/06/13 06:39:37;;;;;;;;;;;;;;;;;;5094653;28;19926;-78
2023/06/13 06:42:27;;;;;;;;;;;;;;;;;;5077029;27;20346;-80
2023/06/13 06:45:13;;;;;;;;;;;;;;;;;;5038524;28;19957;-77
2023/06/13 06:48:01;;;;;;;;;;;;;;;;;;5114641;27;20334;-77
2023/06/13 06:50:48;;;;;;;;;;;;;;;;;;5082091;28;19920;-78
2023/06/13 06:53:34;;;;;;;;;;;;;;;;;;5104034;27;19920;-79
2023/06/13 06:56:21;;;;;;;;;;;;;;;;;;5092058;28;20556;-78
2023/06/13 06:59:07;;;;;;;;;;;;;;;;;;5095048;28;19951;-77
2023/06/13 07:01:54;;;;;;;;;;;;;;;;;;5100628;28;19916;-79
2023/06/13 07:04:40;;;;;;;;;;;;;;;;;;5101902;28;19919;-78
2023/06/13 07:07:27;;;;;;;;;;;;;;;;;;5097477;28;19912;-78
2023/06/13 07:10:13;;;;;;;;;;;;;;;;;;5094921;27;19924;-77
2023/06/13 07:13:00;;;;;;;;;;;;;;;;;;5095217;27;19924;-78
2023/06/13 07:15:46;;;;;;;;;;;;;;;;;;5103473;28;19916;-77
2023/06/13 07:18:33;;;;;;;;;;;;;;;;;;5078729;28;20314;-78
2023/06/13 07:21:19;;;;;;;;;;;;;;;;;;5100842;28;19938;-78
2023/06/13 07:24:06;;;;;;;;;;;;;;;;;;5099823;27;19939;-77
2023/06/13 07:26:52;;;;;;;;;;;;;;;;;;5100175;27;20297;-76
2023/06/13 07:29:40;;;;;;;;;;;;;;;;;;5092485;27;19915;-78
2023/06/13 07:32:26;;;;;;;;;;;;;;;;;;5100651;27;20380;-78
2023/06/13 07:35:15;;;;;;;;;;;;;;;;;;5096279;27;19924;-78
2023/06/13 07:38:01;;;;;;;;;;;;;;;;;;5098804;28;19927;-77
2023/06/13 07:40:48;;;;;;;;;;;;;;;;;;5103409;27;19927;-78
2023/06/13 07:43:34;;;;;;;;;;;;;;;;;;5096767;27;19923;-77
2023/06/13 07:46:21;;;;;;;;;;;;;;;;;;5083685;28;19926;-79
2023/06/13 07:49:07;;;;;;;;;;;;;;;;;;5097491;27;19942;-77
2023/06/13 07:51:54;;;;;;;;;;;;;;;;;;5092442;27;19926;-77
2023/06/13 07:54:40;;;;;;;;;;;;;;;;;;5103443;27;19915;-77
2023/06/13 07:57:27;;;;;;;;;;;;;;;;;;5071618;28;19920;-76
2023/06/13 08:00:17;;;;;;;;;;;;;;;;;;5102375;28;19916;-79
2023/06/13 08:03:04;;;;;;;;;;;;;;;;;;5100501;27;19928;-77
2023/06/13 08:05:50;;;;;;;;;;;;;;;;;;5100649;27;20613;-78
2023/06/13 08:08:37;;;;;;;;;;;;;;;;;;5099872;28;19919;-78
2023/06/13 08:11:23;;;;;;;;;;;;;;;;;;5101360;27;19927;-78
2023/06/13 08:14:12;;;;;;;;;;;;;;;;;;5104641;27;19930;-78
2023/06/13 08:16:59;;;;;;;;;;;;;;;;;;5085071;27;19986;-77
2023/06/13 08:19:50;;;;;;;;;;;;;;;;;;5101174;27;19935;-79
2023/06/13 08:22:36;;;;;;;;;;;;;;;;;;5100840;28;20401;-78
2023/06/13 08:25:23;;;;;;;;;;;;;;;;;;5101361;27;19926;-77
2023/06/13 08:28:16;;;;;;;;;;;;;;;;;;5099059;27;19912;-79
2023/06/13 08:31:03;;;;;;;;;;;;;;;;;;5096497;27;19923;-78
2023/06/13 08:33:50;;;;;;;;;;;;;;;;;;5102017;28;19916;-78
2023/06/13 08:36:39;;;;;;;;;;;;;;;;;;5104409;28;19957;-78
2023/06/13 08:39:26;;;;;;;;;;;;;;;;;;5098961;28;20319;-78
2023/06/13 08:42:12;;;;;;;;;;;;;;;;;;5102214;28;19927;-79
2023/06/13 08:44:59;;;;;;;;;;;;;;;;;;5097451;27;19946;-78
2023/06/13 08:47:46;;;;;;;;;;;;;;;;;;5097356;27;19920;-78
2023/06/13 08:50:33;;;;;;;;;;;;;;;;;;5104501;28;19923;-78
2023/06/13 08:53:27;;;;;;;;;;;;;;;;;;5102275;28;19922;-77
2023/06/13 08:56:14;;;;;;;;;;;;;;;;;;5100145;28;19930;-77
2023/06/13 08:59:00;;;;;;;;;;;;;;;;;;5099390;27;19916;-77
2023/06/13 09:01:47;;;;;;;;;;;;;;;;;;5102026;27;19927;-77
2023/06/13 09:04:33;;;;;;;;;;;;;;;;;;5101895;28;19931;-77
2023/06/13 09:07:21;;;;;;;;;;;;;;;;;;5085573;28;20443;-78
2023/06/13 09:10:10;;;;;;;;;;;;;;;;;;5100705;28;19915;-78
2023/06/13 09:12:56;;;;;;;;;;;;;;;;;;5105609;27;19915;-78
2023/06/13 09:15:43;;;;;;;;;;;;;;;;;;5097468;28;20028;-78
2023/06/13 09:18:30;;;;;;;;;;;;;;;;;;5086974;28;19923;-78
2023/06/13 09:21:17;;;;;;;;;;;;;;;;;;5099432;27;19915;-78
2023/06/13 09:24:04;;;;;;;;;;;;;;;;;;5095903;27;20383;-78
2023/06/13 09:26:50;;;;;;;;;;;;;;;;;;5111764;27;19920;-78
2023/06/13 09:29:37;;;;;;;;;;;;;;;;;;5104510;27;19923;-77
2023/06/13 09:32:23;;;;;;;;;;;;;;;;;;5085073;27;19934;-78
2023/06/13 09:35:10;;;;;;;;;;;;;;;;;;5110142;27;19920;-78
2023/06/13 09:37:56;;;;;;;;;;;;;;;;;;5083630;28;19924;-78
2023/06/13 09:40:43;;;;;;;;;;;;;;;;;;5112330;27;19924;-78
2023/06/13 09:43:29;;;;;;;;;;;;;;;;;;5105027;28;19931;-78
2023/06/13 09:46:16;;;;;;;;;;;;;;;;;;5102069;27;20321;-77
2023/06/13 09:49:03;;;;;;;;;;;;;;;;;;5091693;28;19922;-77
2023/06/13 09:51:50;;;;;;;;;;;;;;;;;;5116402;27;20501;-77
2023/06/13 09:54:37;;;;;;;;;;;;;;;;;;5106427;28;19916;-78
2023/06/13 09:57:24;;;;;;;;;;;;;;;;;;5096686;28;19915;-77
2023/06/13 10:00:11;;;;;;;;;;;;;;;;;;5103712;28;19916;-77
2023/06/13 10:02:58;;;;;;;;;;;;;;;;;;5104388;27;19924;-77
2023/06/13 10:05:44;;;;;;;;;;;;;;;;;;5107542;27;20595;-77
2023/06/13 10:08:31;;;;;;;;;;;;;;;;;;5105260;27;19922;-77
2023/06/13 10:11:18;;;;;;;;;;;;;;;;;;5102047;27;19926;-77
2023/06/13 10:14:06;;;;;;;;;;;;;;;;;;5101835;28;19912;-77
2023/06/13 10:16:52;;;;;;;;;;;;;;;;;;5099069;28;19920;-78
2023/06/13 10:19:39;;;;;;;;;;;;;;;;;;5105472;27;19935;-78
2023/06/13 10:22:25;;;;;;;;;;;;;;;;;;5081431;27;20011;-79
2023/06/13 10:25:12;;;;;;;;;;;;;;;;;;5105409;27;20533;-77
2023/06/13 10:27:58;;;;;;;;;;;;;;;;;;5104291;28;19922;-77
2023/06/13 10:30:45;;;;;;;;;;;;;;;;;;5099939;27;19920;-77
2023/06/13 10:33:31;;;;;;;;;;;;;;;;;;5098745;28;19912;-78
2023/06/13 10:36:18;;;;;;;;;;;;;;;;;;5099504;27;19935;-77
2023/06/13 10:39:09;;;;;;;;;;;;;;;;;;5101720;27;20002;-77
2023/06/13 10:41:55;;;;;;;;;;;;;;;;;;5100574;28;19912;-78
2023/06/13 10:44:41;;;;;;;;;;;;;;;;;;5099175;27;19927;-77
2023/06/13 10:47:28;;;;;;;;;;;;;;;;;;5093406;28;19919;-78
2023/06/13 10:50:14;;;;;;;;;;;;;;;;;;5101652;28;19916;-76
2023/06/13 10:53:01;;;;;;;;;;;;;;;;;;5105125;27;20280;-76
2023/06/13 10:55:47;;;;;;;;;;;;;;;;;;5105642;27;20659;-77
2023/06/13 10:58:34;;;;;;;;;;;;;;;;;;5096629;27;19926;-77
2023/06/13 11:01:20;;;;;;;;;;;;;;;;;;5111599;27;19923;-77
2023/06/13 11:04:07;;;;;;;;;;;;;;;;;;5107428;27;19930;-77
2023/06/13 11:06:53;;;;;;;;;;;;;;;;;;5104860;27;19922;-76
2023/06/13 11:09:40;;;;;;;;;;;;;;;;;;5103608;28;20471;-77
2023/06/13 11:12:26;;;;;;;;;;;;;;;;;;5104555;28;19922;-77
2023/06/13 11:15:13;;;;;;;;;;;;;;;;;;5086366;28;19958;-77
2023/06/13 11:17:59;;;;;;;;;;;;;;;;;;5103681;28;19916;-79
2023/06/13 11:20:46;;;;;;;;;;;;;;;;;;5105223;27;20290;-78
2023/06/13 11:23:32;;;;;;;;;;;;;;;;;;5097744;27;19924;-78
2023/06/13 11:26:20;;;;;;;;;;;;;;;;;;5103847;28;19916;-78
2023/06/13 11:29:06;;;;;;;;;;;;;;;;;;5101599;28;19926;-78
2023/06/13 11:31:53;;;;;;;;;;;;;;;;;;5088231;28;19916;-78
2023/06/13 11:34:39;;;;;;;;;;;;;;;;;;5109925;27;19927;-78
2023/06/13 11:37:26;;;;;;;;;;;;;;;;;;5103876;27;20342;-78
2023/06/13 11:40:12;;;;;;;;;;;;;;;;;;5102327;27;19920;-78
2023/06/13 11:42:59;;;;;;;;;;;;;;;;;;5083565;28;19924;-78
2023/06/13 11:45:45;;;;;;;;;;;;;;;;;;5103014;27;19984;-79
2023/06/13 11:48:32;;;;;;;;;;;;;;;;;;5095887;27;19911;-79
2023/06/13 11:51:19;;;;;;;;;;;;;;;;;;5100790;27;19917;-78
2023/06/13 11:54:05;;;;;;;;;;;;;;;;;;5086126;28;19912;-79
2023/06/13 11:56:52;;;;;;;;;;;;;;;;;;5098349;28;20648;-78
2023/06/13 11:59:39;;;;;;;;;;;;;;;;;;5099844;27;19916;-78
2023/06/13 12:02:27;;;;;;;;;;;;;;;;;;5101536;27;19927;-78
2023/06/13 12:05:13;;;;;;;;;;;;;;;;;;5100349;27;19932;-78
2023/06/13 12:08:00;;;;;;;;;;;;;;;;;;5104513;27;19943;-78
2023/06/13 12:10:46;;;;;;;;;;;;;;;;;;5097524;28;19927;-78
2023/06/13 12:13:36;;;;;;;;;;;;;;;;;;5092664;28;20017;-78
2023/06/13 12:16:23;;;;;;;;;;;;;;;;;;5079797;27;19919;-78
2023/06/13 12:19:10;;;;;;;;;;;;;;;;;;5092466;27;19927;-79
2023/06/13 12:21:58;;;;;;;;;;;;;;;;;;5097348;27;19916;-78
2023/06/13 12:24:44;;;;;;;;;;;;;;;;;;5102299;27;19924;-78
2023/06/13 12:27:32;;;;;;;;;;;;;;;;;;5101749;28;20021;-79
2023/06/13 12:30:19;;;;;;;;;;;;;;;;;;5091253;28;20379;-77
2023/06/13 12:33:06;;;;;;;;;;;;;;;;;;5096636;28;20323;-78
2023/06/13 12:35:52;;;;;;;;;;;;;;;;;;5102188;28;19931;-77
2023/06/13 12:38:39;;;;;;;;;;;;;;;;;;5100970;27;20291;-78
2023/06/13 12:41:26;;;;;;;;;;;;;;;;;;5098018;27;19926;-78
2023/06/13 12:44:12;;;;;;;;;;;;;;;;;;5102235;28;19927;-77
2023/06/13 12:47:02;;;;;;;;;;;;;;;;;;5085043;28;19916;-77
2023/06/13 12:49:48;;;;;;;;;;;;;;;;;;5099885;28;19969;-78
2023/06/13 12:52:36;;;;;;;;;;;;;;;;;;5106522;27;19916;-78
2023/06/13 12:55:22;;;;;;;;;;;;;;;;;;5092287;27;19927;-78
2023/06/13 12:58:08;;;;;;;;;;;;;;;;;;5104233;27;19918;-78
2023/06/13 13:00:55;;;;;;;;;;;;;;;;;;5099136;27;19919;-78
2023/06/13 13:03:42;;;;;;;;;;;;;;;;;;5090576;27;19934;-78
2023/06/13 13:06:29;;;;;;;;;;;;;;;;;;5104958;27;19919;-78
2023/06/13 13:09:16;;;;;;;;;;;;;;;;;;5103849;27;19927;-78
2023/06/13 13:12:02;;;;;;;;;;;;;;;;;;5100270;27;19916;-78
2023/06/13 13:14:49;;;;;;;;;;;;;;;;;;5106916;27;19924;-78
2023/06/13 13:17:36;;;;;;;;;;;;;;;;;;5090755;28;19920;-78
2023/06/13 13:20:22;;;;;;;;;;;;;;;;;;5099861;27;19935;-77
2023/06/13 13:23:09;;;;;;;;;;;;;;;;;;5104942;27;19923;-78
2023/06/13 13:25:55;;;;;;;;;;;;;;;;;;5104581;27;19942;-78
2023/06/13 13:28:42;;;;;;;;;;;;;;;;;;5100119;27;19916;-78
2023/06/13 13:31:28;;;;;;;;;;;;;;;;;;5101023;28;20422;-78
2023/06/13 13:34:15;;;;;;;;;;;;;;;;;;5090417;27;19927;-78
2023/06/13 13:37:01;;;;;;;;;;;;;;;;;;5105345;27;20387;-78
2023/06/13 13:39:48;;;;;;;;;;;;;;;;;;5103483;27;19920;-78
2023/06/13 13:42:36;;;;;;;;;;;;;;;;;;5090324;27;19924;-78
2023/06/13 13:45:23;;;;;;;;;;;;;;;;;;5110639;27;20485;-77
2023/06/13 13:48:12;;;;;;;;;;;;;;;;;;5104165;27;19926;-78
2023/06/13 13:50:58;;;;;;;;;;;;;;;;;;5105427;27;20375;-77
2023/06/13 13:53:45;;;;;;;;;;;;;;;;;;5105814;27;19924;-78
2023/06/13 13:56:31;;;;;;;;;;;;;;;;;;5102393;27;19927;-78
2023/06/13 13:59:18;;;;;;;;;;;;;;;;;;5103534;27;19919;-78
2023/06/13 14:02:04;;;;;;;;;;;;;;;;;;5093599;28;19915;-79
2023/06/13 14:04:51;;;;;;;;;;;;;;;;;;5109099;27;20764;-78
2023/06/13 14:07:37;;;;;;;;;;;;;;;;;;5107450;27;19915;-78
2023/06/13 14:10:24;;;;;;;;;;;;;;;;;;5100088;27;19920;-77
2023/06/13 14:13:12;;;;;;;;;;;;;;;;;;5091104;27;19922;-78
2023/06/13 14:15:59;;;;;;;;;;;;;;;;;;5105186;28;20429;-77
2023/06/13 14:18:46;;;;;;;;;;;;;;;;;;5106326;27;20317;-78
2023/06/13 14:21:32;;;;;;;;;;;;;;;;;;5103124;28;20366;-78
2023/06/13 14:24:19;;;;;;;;;;;;;;;;;;5101869;27;19949;-78
2023/06/13 14:27:07;;;;;;;;;;;;;;;;;;5104754;27;19912;-76
2023/06/13 14:29:53;;;;;;;;;;;;;;;;;;5096969;28;20359;-77
2023/06/13 14:32:40;;;;;;;;;;;;;;;;;;5102085;27;19916;-77
2023/06/13 14:35:28;;;;;;;;;;;;;;;;;;5099519;27;20390;-77
2023/06/13 14:38:14;;;;;;;;;;;;;;;;;;5105195;27;19920;-77
2023/06/13 14:41:01;;;;;;;;;;;;;;;;;;5104369;27;19920;-77
2023/06/13 14:43:47;;;;;;;;;;;;;;;;;;5102237;28;20506;-78
2023/06/13 14:46:34;;;;;;;;;;;;;;;;;;5084399;27;19976;-77
2023/06/13 14:49:21;;;;;;;;;;;;;;;;;;5100079;28;19919;-77
2023/06/13 14:52:07;;;;;;;;;;;;;;;;;;5102317;27;19920;-77
2023/06/13 14:54:54;;;;;;;;;;;;;;;;;;5104951;27;20087;-78
2023/06/13 14:57:40;;;;;;;;;;;;;;;;;;5104185;28;19927;-78
2023/06/13 15:00:27;;;;;;;;;;;;;;;;;;5105008;27;19919;-78
2023/06/13 15:03:13;;;;;;;;;;;;;;;;;;5085996;27;19931;-78
2023/06/13 15:06:00;;;;;;;;;;;;;;;;;;5101333;27;20263;-78
2023/06/13 15:08:46;;;;;;;;;;;;;;;;;;5098702;28;19916;-77
2023/06/13 15:11:33;;;;;;;;;;;;;;;;;;5103595;27;19924;-77
2023/06/13 15:14:19;;;;;;;;;;;;;;;;;;5104438;27;19925;-77
2023/06/13 15:17:06;;;;;;;;;;;;;;;;;;5097970;27;20275;-78
2023/06/13 15:19:52;;;;;;;;;;;;;;;;;;5103670;27;19937;-78
2023/06/13 15:22:39;;;;;;;;;;;;;;;;;;5100064;28;19916;-78
2023/06/13 15:25:25;;;;;;;;;;;;;;;;;;5081248;28;19930;-78
2023/06/13 15:28:12;;;;;;;;;;;;;;;;;;5101447;27;19916;-78
2023/06/13 15:30:58;;;;;;;;;;;;;;;;;;5100300;28;19958;-77
2023/06/13 15:33:45;;;;;;;;;;;;;;;;;;5104262;28;19920;-77
2023/06/13 15:36:31;;;;;;;;;;;;;;;;;;5103496;27;19924;-78
2023/06/13 15:39:18;;;;;;;;;;;;;;;;;;5102364;27;19922;-78
2023/06/13 15:42:05;;;;;;;;;;;;;;;;;;5109847;27;19927;-77
2023/06/13 15:44:52;;;;;;;;;;;;;;;;;;5103755;27;19928;-78
2023/06/13 15:47:39;;;;;;;;;;;;;;;;;;5103724;28;19941;-77
2023/06/13 15:50:25;;;;;;;;;;;;;;;;;;5102952;27;20394;-78
2023/06/13 15:53:12;;;;;;;;;;;;;;;;;;5102589;27;19923;-78
2023/06/13 15:56:03;;;;;;;;;;;;;;;;;;5095491;28;19920;-78
2023/06/13 15:58:49;;;;;;;;;;;;;;;;;;5102259;28;19916;-78
2023/06/13 16:01:36;;;;;;;;;;;;;;;;;;5102078;28;19920;-78
2023/06/13 16:04:22;;;;;;;;;;;;;;;;;;5106176;27;19923;-78
2023/06/13 16:07:09;;;;;;;;;;;;;;;;;;5102282;28;19920;-78
2023/06/13 16:09:55;;;;;;;;;;;;;;;;;;5076588;28;20449;-78
2023/06/13 16:12:43;;;;;;;;;;;;;;;;;;5102459;28;19912;-79
2023/06/13 16:15:31;;;;;;;;;;;;;;;;;;5091932;27;19930;-79
2023/06/13 16:18:18;;;;;;;;;;;;;;;;;;5100686;27;20375;-79
2023/06/13 16:21:04;;;;;;;;;;;;;;;;;;5100470;27;19924;-79
2023/06/13 16:23:51;;;;;;;;;;;;;;;;;;5100750;28;19930;-79
2023/06/13 16:26:38;;;;;;;;;;;;;;;;;;5100723;27;20389;-79
2023/06/13 16:29:25;;;;;;;;;;;;;;;;;;5098953;27;20548;-79
2023/06/13 16:32:11;;;;;;;;;;;;;;;;;;5085526;28;19917;-79
2023/06/13 16:34:57;;;;;;;;;;;;;;;;;;5093777;28;19920;-79
2023/06/13 16:37:44;;;;;;;;;;;;;;;;;;5101859;28;19927;-79
2023/06/13 16:40:30;;;;;;;;;;;;;;;;;;5091980;28;19920;-79
2023/06/13 16:43:17;;;;;;;;;;;;;;;;;;5101253;27;20660;-79
2023/06/13 16:46:04;;;;;;;;;;;;;;;;;;5099883;28;19916;-78
2023/06/13 16:48:50;;;;;;;;;;;;;;;;;;5096962;28;19956;-79
2023/06/13 16:51:37;;;;;;;;;;;;;;;;;;5101492;28;19920;-78
2023/06/13 16:54:23;;;;;;;;;;;;;;;;;;5096465;28;20447;-79
2023/06/13 16:57:10;;;;;;;;;;;;;;;;;;5102942;28;19930;-78
2023/06/13 16:59:57;;;;;;;;;;;;;;;;;;5098475;28;20578;-78
2023/06/13 17:02:43;;;;;;;;;;;;;;;;;;5101219;27;19915;-79
2023/06/13 17:05:29;;;;;;;;;;;;;;;;;;5091937;27;19927;-79
2023/06/13 17:08:16;;;;;;;;;;;;;;;;;;5103057;27;19931;-78
2023/06/13 17:11:03;;;;;;;;;;;;;;;;;;5103001;27;19915;-77
2023/06/13 17:13:50;;;;;;;;;;;;;;;;;;5077884;28;19920;-78
2023/06/13 17:16:37;;;;;;;;;;;;;;;;;;5101497;28;19926;-79
2023/06/13 17:19:23;;;;;;;;;;;;;;;;;;5095475;27;19928;-78
2023/06/13 17:22:10;;;;;;;;;;;;;;;;;;5090258;28;19916;-78
2023/06/13 17:24:56;;;;;;;;;;;;;;;;;;5099599;28;19928;-78
2023/06/13 17:27:43;;;;;;;;;;;;;;;;;;5105729;27;19916;-78
2023/06/13 17:30:30;;;;;;;;;;;;;;;;;;5102620;28;20268;-78
2023/06/13 17:33:16;;;;;;;;;;;;;;;;;;5104350;27;19916;-78
2023/06/13 17:36:03;;;;;;;;;;;;;;;;;;5102344;28;19955;-78
2023/06/13 17:38:50;;;;;;;;;;;;;;;;;;5104305;28;19922;-78
2023/06/13 17:41:36;;;;;;;;;;;;;;;;;;5114290;27;19955;-78
2023/06/13 17:44:22;;;;;;;;;;;;;;;;;;5103563;27;20288;-79
2023/06/13 17:47:09;;;;;;;;;;;;;;;;;;5110937;27;19923;-78
2023/06/13 17:49:55;;;;;;;;;;;;;;;;;;5100715;27;19928;-84
2023/06/13 17:52:42;;;;;;;;;;;;;;;;;;5113699;27;19935;-78
2023/06/13 17:55:28;;;;;;;;;;;;;;;;;;5102319;27;19916;-78
2023/06/13 17:58:15;;;;;;;;;;;;;;;;;;5103399;27;19919;-78
2023/06/13 18:01:04;;;;;;;;;;;;;;;;;;5104063;27;19988;-77
2023/06/13 18:03:50;;;;;;;;;;;;;;;;;;5100320;27;20280;-78
2023/06/13 18:06:37;;;;;;;;;;;;;;;;;;5103745;27;19920;-79
2023/06/13 18:09:23;;;;;;;;;;;;;;;;;;5105291;27;19920;-78
2023/06/13 18:12:10;;;;;;;;;;;;;;;;;;5102101;27;20298;-78
2023/06/13 18:14:56;;;;;;;;;;;;;;;;;;5101148;27;19926;-78
2023/06/13 18:17:43;;;;;;;;;;;;;;;;;;5102574;27;19950;-77
2023/06/13 18:20:31;;;;;;;;;;;;;;;;;;5093230;27;19930;-80
2023/06/13 18:23:17;;;;;;;;;;;;;;;;;;5103033;27;20099;-78
2023/06/13 18:26:04;;;;;;;;;;;;;;;;;;5083173;27;20310;-78
2023/06/13 18:28:50;;;;;;;;;;;;;;;;;;5082910;28;19916;-78
2023/06/13 18:31:37;;;;;;;;;;;;;;;;;;5100717;27;20530;-79
2023/06/13 18:34:23;;;;;;;;;;;;;;;;;;5091125;27;19935;-81
2023/06/13 18:37:10;;;;;;;;;;;;;;;;;;5081451;28;19943;-80
2023/06/13 18:39:56;;;;;;;;;;;;;;;;;;5099499;27;19934;-79
2023/06/13 18:42:43;;;;;;;;;;;;;;;;;;5101749;27;19927;-80
2023/06/13 18:45:30;;;;;;;;;;;;;;;;;;5099033;27;20243;-77
2023/06/13 18:48:17;;;;;;;;;;;;;;;;;;5088088;27;20530;-77
2023/06/13 18:51:05;;;;;;;;;;;;;;;;;;5109159;27;19919;-76
2023/06/13 18:53:51;;;;;;;;;;;;;;;;;;5097419;27;19924;-80
2023/06/13 18:56:38;;;;;;;;;;;;;;;;;;5101403;27;19920;-78
2023/06/13 18:59:24;;;;;;;;;;;;;;;;;;5095401;28;20393;-77